• Join FlightAware (Why Join?)
  • Login
  • US Flag 
Gobble Gobble! 
10:56AM EST


 

Airport Tracker/Info


-or-


 

Live Flight TrackerFlight Track Log ✈ AAY846 ✈ 24-Mar-2014 ✈ KPIE - KPIA

Flight Track Log - Related Links

Times and Time Zones

All times are in EDT time to prevent confusion due to time zone crossing. See the AAY846 flight status page for this flight to view local times or setup timezone preferences in your user account.

Time Position Orientation Groundspeed Altitude Reporting Facility
EDT Latitude Longitude Course Direction KTS MPH feet Rate Location/Type
08:40AM 27.9167 -82.6833 349° North 180 207 500  Level Tampa TRACON
08:42AM 28.0600 -82.7139 349° North 234 269 5,100 2,340 Climbing Jacksonville Center
08:43AM 28.1331 -82.7183 357° North 251 289 8,500 2,760 Climbing Jacksonville Center
08:44AM 28.2083 -82.7136 North 256 295 10,600 1,680 Climbing Jacksonville Center
08:45AM 28.2875 -82.7464 340° North 272 313 11,900 1,740 Climbing Jacksonville Center
08:46AM 28.3711 -82.7889 336° Northwest 304 350 14,200 2,340 Climbing Jacksonville Center
08:47AM 28.4589 -82.8311 337° Northwest 321 369 16,600 1,800 Climbing Jacksonville Center
08:48AM 28.5486 -82.8831 333° Northwest 338 389 17,800 1,380 Climbing Jacksonville Center
08:49AM 28.6403 -82.9375 332° Northwest 365 420 19,400 1,500 Climbing Jacksonville Center
08:50AM 28.7383 -82.9897 335° Northwest 376 433 20,800 1,440 Climbing Jacksonville Center
08:51AM 28.8406 -83.0467 334° Northwest 394 453 22,300 1,320 Climbing Jacksonville Center
08:52AM 28.9450 -83.1061 334° Northwest 404 465 23,500 1,680 Climbing Jacksonville Center
08:53AM 29.0617 -83.1350 348° North 417 480 25,700 1,740 Climbing Jacksonville Center
08:54AM 29.1828 -83.1375 359° North 422 486 27,000 600 Climbing Jacksonville Center
08:55AM 29.3100 -83.1378 360° North 433 498 26,900 600 Descending Jacksonville Center
08:56AM 29.4333 -83.1381 360° North 438 504 28,200 1,560 Climbing Jacksonville Center
08:57AM 29.5669 -83.1481 356° North 425 489 30,100 1,380 Climbing Jacksonville Center
08:58AM 29.6606 -83.2106 330° Northwest 382 440 31,000 900 Climbing Jacksonville Center
08:59AM 29.7356 -83.2633 329° Northwest 377 434 31,900 420 Climbing Jacksonville Center
09:00AM 29.8231 -83.3258 328° Northwest 370 426 31,900  Level Jacksonville Center
09:01AM 29.9106 -83.3861 329° Northwest 365 420 32,000  Climbing Jacksonville Center
09:02AM 30.0003 -83.4489 329° Northwest 365 420 32,000  Level Jacksonville Center
09:03AM 30.0897 -83.5119 329° Northwest 365 420 32,000  Level Jacksonville Center
09:04AM 30.1833 -83.5797 328° Northwest 365 420 32,000 -60 Level Jacksonville Center
09:05AM 30.2706 -83.6431 328° Northwest 365 420 31,900  Descending Jacksonville Center
09:06AM 30.3600 -83.7064 329° Northwest 370 426 32,000  Climbing Jacksonville Center
09:07AM 30.4472 -83.7697 328° Northwest 370 426 31,900  Descending Jacksonville Center
09:08AM 30.5367 -83.8308 330° Northwest 370 426 32,000  Climbing Jacksonville Center
09:09AM 30.6239 -83.8919 329° Northwest 370 426 32,000  Level Jacksonville Center
09:10AM 30.7108 -83.9581 327° Northwest 370 426 32,000  Level Jacksonville Center
09:11AM 30.7878 -84.0169 327° Northwest 370 426 32,000  Level Jacksonville Center
09:12AM 30.8747 -84.0786 329° Northwest 370 426 32,000  Level Jacksonville Center
09:13AM 30.9619 -84.1428 328° Northwest 370 426 32,000  Level Jacksonville Center
09:14AM 31.0489 -84.2069 328° Northwest 365 420 32,000  Level Jacksonville Center
09:15AM 31.1361 -84.2686 329° Northwest 365 420 32,000  Level Jacksonville Center
09:17AM 31.3203 -84.4036 328° Northwest 371 427 32,000  Level Atlanta Center
09:18AM 31.3933 -84.4572 328° Northwest 365 420 32,000  Level Atlanta Center
09:19AM 31.4806 -84.5233 327° Northwest 360 414 32,000  Level Atlanta Center
09:20AM 31.5639 -84.5847 328° Northwest 360 414 32,000  Level Atlanta Center
09:21AM 31.6450 -84.6464 327° Northwest 360 414 32,000  Level Atlanta Center
09:22AM 31.7281 -84.7078 328° Northwest 360 414 32,000  Level Atlanta Center
09:23AM 31.8114 -84.7697 328° Northwest 360 414 32,000  Level Atlanta Center
09:24AM 31.9028 -84.8217 334° Northwest 360 414 32,000  Level Atlanta Center
09:25AM 32.0047 -84.8544 345° North 361 415 32,000  Level Atlanta Center
09:26AM 32.1047 -84.8897 343° North 372 428 32,000  Level Atlanta Center
09:27AM 32.2069 -84.9225 345° North 377 434 32,000  Level Atlanta Center
09:28AM 32.3150 -84.9556 346° North 377 434 32,000  Level Atlanta Center
09:29AM 32.4192 -84.9911 344° North 379 436 32,000  Level Atlanta Center
09:30AM 32.5211 -85.0242 345° North 379 436 32,000  Level Atlanta Center
09:31AM 32.6275 -85.0600 344° North 379 436 32,000  Level Atlanta Center
09:32AM 32.7231 -85.0906 345° North 370 426 32,000  Level Atlanta Center
09:33AM 32.8167 -85.1289 341° North 388 447 32,000  Level Atlanta Center
09:34AM 32.9314 -85.1625 346° North 388 447 32,000  Level Atlanta Center
09:35AM 33.0333 -85.1983 344° North 380 437 32,000  Level Atlanta Center
09:36AM 33.1308 -85.2469 337° Northwest 380 437 32,000  Level Atlanta Center
09:37AM 33.2286 -85.2928 339° North 374 430 32,000  Level Atlanta Center
09:38AM 33.3261 -85.3392 338° Northwest 367 422 32,000  Level Atlanta Center
09:39AM 33.4217 -85.3828 339° North 373 429 32,000  Level Atlanta Center
09:40AM 33.5214 -85.4267 340° North 380 437 32,000  Level Atlanta Center
09:41AM 33.6189 -85.4733 338° Northwest 375 432 32,000  Level Atlanta Center
09:42AM 33.7186 -85.5197 339° North 375 432 32,000  Level Atlanta Center
09:43AM 33.8161 -85.5639 339° North 375 432 32,000  Level Atlanta Center
09:44AM 33.9033 -85.6056 338° Northwest 375 432 32,000  Level Atlanta Center
09:45AM 34.0028 -85.6525 339° North 375 432 32,000  Level Atlanta Center
09:46AM 34.1003 -85.6944 340° North 375 432 32,000  Level Atlanta Center
09:47AM 34.1978 -85.7417 338° Northwest 375 432 32,000  Level Atlanta Center
09:48AM 34.2931 -85.7889 338° Northwest 375 432 32,000  Level Atlanta Center
09:49AM 34.3989 -85.8364 340° North 370 426 32,000  Level Atlanta Center
09:50AM 34.4983 -85.8811 340° North 370 426 32,000  Level Atlanta Center
09:51AM 34.5958 -85.9289 338° Northwest 370 426 32,000  Level Atlanta Center
09:52AM 34.6953 -85.9764 339° North 377 434 32,000  Level Atlanta Center
09:53AM 34.7925 -86.0242 338° Northwest 377 434 32,000  Level Atlanta Center
09:54AM 34.8897 -86.0722 338° Northwest 372 428 32,000  Level Atlanta Center
09:57AM 35.1219 -86.1864 338° Northwest 380 437 32,000  Level Memphis Center
09:58AM 35.2319 -86.2378 339° North 379 436 32,000  Level Memphis Center
09:59AM 35.3300 -86.2867 338° Northwest 379 436 32,000  Level Memphis Center
10:00AM 35.4283 -86.3361 338° Northwest 378 435 32,000  Level Memphis Center
10:01AM 35.5264 -86.3833 339° North 378 435 32,000  Level Memphis Center
10:02AM 35.6239 -86.4322 338° Northwest 378 435 32,000  Level Memphis Center
10:03AM 35.7383 -86.4881 338° Northwest 376 433 32,000  Level Memphis Center
10:05AM 35.9164 -86.5753 338° Northwest 375 432 32,000  Level Indianapolis Center
10:06AM 36.0153 -86.6247 338° Northwest 375 432 32,000  Level Indianapolis Center
10:07AM 36.1133 -86.6733 338° Northwest 375 432 32,000  Level Indianapolis Center
10:08AM 36.2100 -86.7272 336° Northwest 375 432 32,000  Level Indianapolis Center
10:09AM 36.3056 -86.7839 334° Northwest 375 432 32,000  Level Indianapolis Center
10:10AM 36.4233 -86.8528 335° Northwest 372 428 32,000  Level Memphis Center
10:12AM 36.5956 -86.9547 335° Northwest 374 430 32,000  Level Indianapolis Center
10:13AM 36.7069 -87.0203 335° Northwest 374 430 32,000  Level Indianapolis Center
10:14AM 36.8014 -87.0769 334° Northwest 374 430 32,000  Level Indianapolis Center
10:15AM 36.9103 -87.1431 334° Northwest 372 428 32,000  Level Memphis Center
10:16AM 37.0039 -87.1994 334° Northwest 372 428 32,000  Level Memphis Center
10:17AM 37.0978 -87.2553 335° Northwest 372 428 32,000  Level Memphis Center
10:18AM 37.1750 -87.3025 334° Northwest 371 427 32,000  Level Indianapolis Center
10:19AM 37.2694 -87.3569 335° Northwest 371 427 32,000  Level Indianapolis Center
10:20AM 37.3769 -87.4233 334° Northwest 368 423 32,000  Level Indianapolis Center
10:21AM 37.4686 -87.4806 334° Northwest 366 421 32,000  Level Indianapolis Center
10:22AM 37.5619 -87.5356 335° Northwest 366 421 32,000  Level Indianapolis Center
10:23AM 37.6542 -87.5928 334° Northwest 366 421 32,000  Level Indianapolis Center
10:24AM 37.7469 -87.6492 334° Northwest 366 421 32,000  Level Indianapolis Center
10:26AM 37.8414 -87.7075 334° Northwest 366 421 32,000  Level Indianapolis Center
10:27AM 37.9331 -87.7650 334° Northwest 365 420 32,000  Level Indianapolis Center
10:28AM 38.0258 -87.8189 335° Northwest 365 420 32,000  Level Indianapolis Center
10:29AM 38.1189 -87.8742 335° Northwest 365 420 32,000  Level Indianapolis Center
10:30AM 38.2108 -87.9278 335° Northwest 365 420 32,000  Level Indianapolis Center
10:31AM 38.3225 -87.9950 335° Northwest 365 420 32,000  Level Indianapolis Center
10:32AM 38.4172 -88.0508 335° Northwest 366 421 32,000  Level Indianapolis Center
10:33AM 38.5114 -88.1075 335° Northwest 367 422 32,000  Level Indianapolis Center
10:34AM 38.6050 -88.1631 335° Northwest 368 423 32,000  Level Indianapolis Center
10:35AM 38.6981 -88.2194 335° Northwest 368 423 32,000  Level Indianapolis Center
10:36AM 38.7919 -88.2750 335° Northwest 368 423 32,000  Level Indianapolis Center
10:37AM 38.8828 -88.3306 335° Northwest 365 420 32,000  Level Indianapolis Center
10:38AM 38.9747 -88.3875 334° Northwest 363 418 32,000 -300 Level Indianapolis Center
10:39AM 39.0847 -88.4542 335° Northwest 363 418 31,500 -1,020 Descending Indianapolis Center
10:40AM 39.1969 -88.5231 335° Northwest 366 421 29,800 -1,500 Descending Kansas City Center
10:41AM 39.2939 -88.5817 335° Northwest 376 433 28,100 -2,040 Descending Kansas City Center
10:42AM 39.3861 -88.6389 334° Northwest 380 437 25,700 -2,460 Descending Kansas City Center
10:43AM 39.4894 -88.7019 335° Northwest 380 437 23,100 -2,460 Descending Kansas City Center
10:44AM 39.5772 -88.7564 334° Northwest 359 413 20,700 -2,400 Descending Kansas City Center
10:45AM 39.6639 -88.8092 335° Northwest 349 402 18,300 -2,160 Descending Kansas City Center
10:46AM 39.7469 -88.8606 335° Northwest 336 387 16,300 -2,160 Descending Kansas City Center
10:47AM 39.8175 -88.9278 324° Northwest 322 371 13,900 -2,100 Descending Kansas City Center
10:48AM 39.8889 -88.9897 326° Northwest 314 361 12,000 -960 Descending Kansas City Center
10:49AM 39.9703 -89.0644 325° Northwest 304 350 12,000 -180 Level Kansas City Center
10:51AM 40.0411 -89.1272 326° Northwest 304 350 11,700 -480 Descending Kansas City Center
10:52AM 40.1117 -89.1906 326° Northwest 305 351 11,000 -420 Descending Kansas City Center
10:53AM 40.1803 -89.2500 327° Northwest 302 348 10,900 -600 Descending Kansas City Center
10:54AM 40.2625 -89.2958 337° Northwest 275 316 9,800 -1,260 Descending Chicago Center
10:55AM 40.3253 -89.3311 337° Northwest 257 296 8,200 -1,680 Descending Chicago Center
10:56AM 40.3861 -89.3686 335° Northwest 248 285 6,400 -1,740 Descending Chicago Center
10:57AM 40.4464 -89.4117 331° Northwest 247 284 4,700 -1,680 Descending Chicago Center
10:58AM 40.5139 -89.4678 328° Northwest 245 282 3,000 -840 Descending Chicago Center
10:59AM 40.5683 -89.5147 327° Northwest 238 274 3,000 -60 Level Chicago Center
11:00AM 40.5939 -89.5717 301° West 201 231 2,900 -540 Descending Chicago Center
11:01AM 40.6200 -89.6189 306° West 177 204 2,000 -840 Descending Chicago Center
11:02AM 40.6428 -89.6581 307° West 154 177 1,200 -720 Descending Chicago Center
11:03AM 40.6664 -89.7006 306° West 143 165 600 -600 Descending Chicago Center